sensor_id;sensor_type;location;lat;lon;timestamp;temperature;humidity
6174;DHT22;3120;48.796;9.796;2022-08-19T00:01:15;20.60;41.90
6174;DHT22;3120;48.796;9.796;2022-08-19T00:03:41;20.60;73.80
6174;DHT22;3120;48.796;9.796;2022-08-19T00:06:07;20.50;97.80
6174;DHT22;3120;48.796;9.796;2022-08-19T00:08:32;20.50;98.10
6174;DHT22;3120;48.796;9.796;2022-08-19T00:10:58;20.40;99.90
6174;DHT22;3120;48.796;9.796;2022-08-19T00:13:23;20.40;99.90
6174;DHT22;3120;48.796;9.796;2022-08-19T00:15:49;20.40;99.90
6174;DHT22;3120;48.796;9.796;2022-08-19T00:18:15;20.40;99.90
6174;DHT22;3120;48.796;9.796;2022-08-19T00:20:40;20.30;99.90
6174;DHT22;3120;48.796;9.796;2022-08-19T00:23:07;20.30;99.90
6174;DHT22;3120;48.796;9.796;2022-08-19T00:25:32;20.30;99.90
6174;DHT22;3120;48.796;9.796;2022-08-19T00:27:58;20.30;99.90
6174;DHT22;3120;48.796;9.796;2022-08-19T00:30:25;20.30;99.90
6174;DHT22;3120;48.796;9.796;2022-08-19T00:32:52;20.20;99.90
6174;DHT22;3120;48.796;9.796;2022-08-19T00:35:20;20.20;99.90
6174;DHT22;3120;48.796;9.796;2022-08-19T00:37:47;20.20;99.90
6174;DHT22;3120;48.796;9.796;2022-08-19T00:40:14;20.20;99.90
6174;DHT22;3120;48.796;9.796;2022-08-19T00:42:40;20.20;99.90
6174;DHT22;3120;48.796;9.796;2022-08-19T00:45:15;20.20;99.90
6174;DHT22;3120;48.796;9.796;2022-08-19T00:47:42;20.20;99.90
6174;DHT22;3120;48.796;9.796;2022-08-19T00:50:08;20.10;99.90
6174;DHT22;3120;48.796;9.796;2022-08-19T00:52:37;20.20;99.90
6174;DHT22;3120;48.796;9.796;2022-08-19T00:55:06;20.20;99.90
6174;DHT22;3120;48.796;9.796;2022-08-19T00:57:38;20.20;99.90
6174;DHT22;3120;48.796;9.796;2022-08-19T01:00:08;20.10;99.90
6174;DHT22;3120;48.796;9.796;2022-08-19T01:02:36;20.10;99.90
6174;DHT22;3120;48.796;9.796;2022-08-19T01:05:06;20.10;99.90
6174;DHT22;3120;48.796;9.796;2022-08-19T01:07:33;20.10;99.90
6174;DHT22;3120;48.796;9.796;2022-08-19T01:09:59;20.00;99.90
6174;DHT22;3120;48.796;9.796;2022-08-19T01:12:25;20.00;99.90
6174;DHT22;3120;48.796;9.796;2022-08-19T01:14:51;20.10;99.90
6174;DHT22;3120;48.796;9.796;2022-08-19T01:17:18;20.00;99.90
6174;DHT22;3120;48.796;9.796;2022-08-19T01:19:45;20.00;99.90
6174;DHT22;3120;48.796;9.796;2022-08-19T01:22:16;20.10;99.90
6174;DHT22;3120;48.796;9.796;2022-08-19T01:24:44;20.00;99.90
6174;DHT22;3120;48.796;9.796;2022-08-19T01:27:10;19.90;99.90
6174;DHT22;3120;48.796;9.796;2022-08-19T01:29:39;19.90;99.90
6174;DHT22;3120;48.796;9.796;2022-08-19T01:32:06;19.90;99.90
6174;DHT22;3120;48.796;9.796;2022-08-19T01:34:32;19.90;99.90
6174;DHT22;3120;48.796;9.796;2022-08-19T01:36:59;19.80;99.90
6174;DHT22;3120;48.796;9.796;2022-08-19T01:39:27;19.80;99.90
6174;DHT22;3120;48.796;9.796;2022-08-19T01:41:53;19.80;99.90
6174;DHT22;3120;48.796;9.796;2022-08-19T01:44:22;19.80;99.90
6174;DHT22;3120;48.796;9.796;2022-08-19T01:46:50;19.70;99.90
6174;DHT22;3120;48.796;9.796;2022-08-19T01:49:22;19.70;99.90
6174;DHT22;3120;48.796;9.796;2022-08-19T01:51:49;19.70;99.90
6174;DHT22;3120;48.796;9.796;2022-08-19T01:54:18;19.60;99.90
6174;DHT22;3120;48.796;9.796;2022-08-19T01:56:44;19.60;99.90
6174;DHT22;3120;48.796;9.796;2022-08-19T01:59:15;19.60;99.90
6174;DHT22;3120;48.796;9.796;2022-08-19T02:01:42;19.60;99.90
6174;DHT22;3120;48.796;9.796;2022-08-19T02:04:07;19.60;99.90
6174;DHT22;3120;48.796;9.796;2022-08-19T02:06:33;19.60;99.90
6174;DHT22;3120;48.796;9.796;2022-08-19T02:08:59;19.60;99.90
6174;DHT22;3120;48.796;9.796;2022-08-19T02:11:28;19.60;99.90
6174;DHT22;3120;48.796;9.796;2022-08-19T02:13:58;19.60;99.90
6174;DHT22;3120;48.796;9.796;2022-08-19T02:16:24;19.60;99.90
6174;DHT22;3120;48.796;9.796;2022-08-19T02:18:50;19.60;99.90
6174;DHT22;3120;48.796;9.796;2022-08-19T02:21:20;19.60;99.90
6174;DHT22;3120;48.796;9.796;2022-08-19T02:23:47;19.60;99.90
6174;DHT22;3120;48.796;9.796;2022-08-19T02:26:13;19.50;99.90
6174;DHT22;3120;48.796;9.796;2022-08-19T02:28:40;19.50;99.90
6174;DHT22;3120;48.796;9.796;2022-08-19T02:31:14;19.50;99.90
6174;DHT22;3120;48.796;9.796;2022-08-19T02:33:41;19.50;99.90
6174;DHT22;3120;48.796;9.796;2022-08-19T02:36:07;19.50;99.90
6174;DHT22;3120;48.796;9.796;2022-08-19T02:38:34;19.50;99.90
6174;DHT22;3120;48.796;9.796;2022-08-19T02:41:03;19.50;99.90
6174;DHT22;3120;48.796;9.796;2022-08-19T02:43:31;19.50;99.90
6174;DHT22;3120;48.796;9.796;2022-08-19T02:45:57;19.40;99.90
6174;DHT22;3120;48.796;9.796;2022-08-19T02:48:24;19.40;99.90
6174;DHT22;3120;48.796;9.796;2022-08-19T02:50:52;19.40;99.90
6174;DHT22;3120;48.796;9.796;2022-08-19T02:53:22;19.40;99.90
6174;DHT22;3120;48.796;9.796;2022-08-19T02:55:49;19.40;99.90
6174;DHT22;3120;48.796;9.796;2022-08-19T02:58:16;19.40;99.90
6174;DHT22;3120;48.796;9.796;2022-08-19T03:00:44;19.30;99.90
6174;DHT22;3120;48.796;9.796;2022-08-19T03:03:09;19.30;99.90
6174;DHT22;3120;48.796;9.796;2022-08-19T03:05:35;19.20;99.90
6174;DHT22;3120;48.796;9.796;2022-08-19T03:08:01;19.20;99.90
6174;DHT22;3120;48.796;9.796;2022-08-19T03:10:27;19.30;99.90
6174;DHT22;3120;48.796;9.796;2022-08-19T03:12:53;19.20;99.90
6174;DHT22;3120;48.796;9.796;2022-08-19T03:15:18;19.10;99.90
6174;DHT22;3120;48.796;9.796;2022-08-19T03:17:44;19.10;99.90
6174;DHT22;3120;48.796;9.796;2022-08-19T03:20:10;19.10;99.90
6174;DHT22;3120;48.796;9.796;2022-08-19T03:22:35;19.10;99.90
6174;DHT22;3120;48.796;9.796;2022-08-19T03:25:01;19.10;99.90
6174;DHT22;3120;48.796;9.796;2022-08-19T03:27:26;19.10;99.90
6174;DHT22;3120;48.796;9.796;2022-08-19T03:29:52;19.10;99.90
6174;DHT22;3120;48.796;9.796;2022-08-19T03:32:18;19.30;99.90
6174;DHT22;3120;48.796;9.796;2022-08-19T03:34:43;19.10;99.90
6174;DHT22;3120;48.796;9.796;2022-08-19T03:37:10;19.10;99.90
6174;DHT22;3120;48.796;9.796;2022-08-19T03:39:40;19.10;99.90
6174;DHT22;3120;48.796;9.796;2022-08-19T03:42:06;19.10;99.90
6174;DHT22;3120;48.796;9.796;2022-08-19T03:44:32;19.10;99.90
6174;DHT22;3120;48.796;9.796;2022-08-19T03:46:59;19.10;99.90
6174;DHT22;3120;48.796;9.796;2022-08-19T03:49:27;19.00;99.90
6174;DHT22;3120;48.796;9.796;2022-08-19T03:51:55;19.00;99.90
6174;DHT22;3120;48.796;9.796;2022-08-19T03:54:24;19.00;99.90
6174;DHT22;3120;48.796;9.796;2022-08-19T03:56:51;19.00;99.90
6174;DHT22;3120;48.796;9.796;2022-08-19T03:59:27;19.00;99.90
6174;DHT22;3120;48.796;9.796;2022-08-19T04:01:57;19.00;99.90
6174;DHT22;3120;48.796;9.796;2022-08-19T04:04:24;18.90;99.90
6174;DHT22;3120;48.796;9.796;2022-08-19T04:06:50;19.00;99.90
6174;DHT22;3120;48.796;9.796;2022-08-19T04:09:16;18.90;99.90
6174;DHT22;3120;48.796;9.796;2022-08-19T04:11:51;18.90;99.90
6174;DHT22;3120;48.796;9.796;2022-08-19T04:14:22;18.90;99.90
6174;DHT22;3120;48.796;9.796;2022-08-19T04:16:49;18.90;99.90
6174;DHT22;3120;48.796;9.796;2022-08-19T04:19:16;18.90;99.90
6174;DHT22;3120;48.796;9.796;2022-08-19T04:21:47;19.10;99.90
6174;DHT22;3120;48.796;9.796;2022-08-19T04:24:14;18.90;99.90
6174;DHT22;3120;48.796;9.796;2022-08-19T04:26:40;18.80;99.90
6174;DHT22;3120;48.796;9.796;2022-08-19T04:29:13;18.80;99.90
6174;DHT22;3120;48.796;9.796;2022-08-19T04:31:41;18.80;99.90
6174;DHT22;3120;48.796;9.796;2022-08-19T04:34:09;18.70;99.90
6174;DHT22;3120;48.796;9.796;2022-08-19T04:36:40;18.70;99.90
6174;DHT22;3120;48.796;9.796;2022-08-19T04:39:12;18.70;99.90
6174;DHT22;3120;48.796;9.796;2022-08-19T04:41:38;18.70;99.90
6174;DHT22;3120;48.796;9.796;2022-08-19T04:44:22;18.80;99.90
6174;DHT22;3120;48.796;9.796;2022-08-19T04:46:49;18.80;99.90
6174;DHT22;3120;48.796;9.796;2022-08-19T04:49:18;18.80;99.90
6174;DHT22;3120;48.796;9.796;2022-08-19T04:51:46;18.80;99.90
6174;DHT22;3120;48.796;9.796;2022-08-19T04:54:14;18.80;99.90
6174;DHT22;3120;48.796;9.796;2022-08-19T04:56:40;18.80;99.90
6174;DHT22;3120;48.796;9.796;2022-08-19T04:59:06;18.90;99.90
6174;DHT22;3120;48.796;9.796;2022-08-19T05:01:34;18.80;99.90
6174;DHT22;3120;48.796;9.796;2022-08-19T05:04:03;18.90;99.90
6174;DHT22;3120;48.796;9.796;2022-08-19T05:06:30;18.90;99.90
6174;DHT22;3120;48.796;9.796;2022-08-19T05:08:59;18.90;99.90
6174;DHT22;3120;48.796;9.796;2022-08-19T05:11:28;18.90;99.90
6174;DHT22;3120;48.796;9.796;2022-08-19T05:13:54;19.00;99.90
6174;DHT22;3120;48.796;9.796;2022-08-19T05:16:21;19.00;99.90
6174;DHT22;3120;48.796;9.796;2022-08-19T05:18:48;18.90;99.90
6174;DHT22;3120;48.796;9.796;2022-08-19T05:21:33;19.20;99.90
6174;DHT22;3120;48.796;9.796;2022-08-19T05:24:18;19.00;99.90
6174;DHT22;3120;48.796;9.796;2022-08-19T05:26:47;19.00;99.90
6174;DHT22;3120;48.796;9.796;2022-08-19T05:29:15;19.10;99.90
6174;DHT22;3120;48.796;9.796;2022-08-19T05:31:41;19.00;99.90
6174;DHT22;3120;48.796;9.796;2022-08-19T05:34:07;19.00;99.90
6174;DHT22;3120;48.796;9.796;2022-08-19T05:36:37;19.00;99.90
6174;DHT22;3120;48.796;9.796;2022-08-19T05:39:05;20.00;99.90
6174;DHT22;3120;48.796;9.796;2022-08-19T05:41:31;19.00;99.90
6174;DHT22;3120;48.796;9.796;2022-08-19T05:43:58;19.00;99.90
6174;DHT22;3120;48.796;9.796;2022-08-19T05:46:24;19.00;99.90
6174;DHT22;3120;48.796;9.796;2022-08-19T05:48:49;19.00;99.90
6174;DHT22;3120;48.796;9.796;2022-08-19T05:51:15;19.00;99.90
6174;DHT22;3120;48.796;9.796;2022-08-19T05:53:42;19.10;99.90
6174;DHT22;3120;48.796;9.796;2022-08-19T05:56:14;19.10;99.90
6174;DHT22;3120;48.796;9.796;2022-08-19T05:58:42;19.10;99.90
6174;DHT22;3120;48.796;9.796;2022-08-19T06:01:14;19.10;99.90
6174;DHT22;3120;48.796;9.796;2022-08-19T06:03:41;19.10;99.90
6174;DHT22;3120;48.796;9.796;2022-08-19T06:06:08;19.10;99.90
6174;DHT22;3120;48.796;9.796;2022-08-19T06:08:35;19.20;99.90
6174;DHT22;3120;48.796;9.796;2022-08-19T06:11:39;19.20;99.90
6174;DHT22;3120;48.796;9.796;2022-08-19T06:14:09;19.20;99.90
6174;DHT22;3120;48.796;9.796;2022-08-19T06:16:37;19.20;99.90
6174;DHT22;3120;48.796;9.796;2022-08-19T06:19:06;19.20;99.90
6174;DHT22;3120;48.796;9.796;2022-08-19T06:21:33;19.20;99.90
6174;DHT22;3120;48.796;9.796;2022-08-19T06:23:59;19.20;99.90
6174;DHT22;3120;48.796;9.796;2022-08-19T06:26:25;19.80;99.90
6174;DHT22;3120;48.796;9.796;2022-08-19T06:28:52;19.20;99.90
6174;DHT22;3120;48.796;9.796;2022-08-19T06:31:21;19.20;99.90
6174;DHT22;3120;48.796;9.796;2022-08-19T06:33:48;19.30;99.90
6174;DHT22;3120;48.796;9.796;2022-08-19T06:36:25;19.20;99.90
6174;DHT22;3120;48.796;9.796;2022-08-19T06:38:58;19.10;99.90
6174;DHT22;3120;48.796;9.796;2022-08-19T06:41:27;19.10;99.90
6174;DHT22;3120;48.796;9.796;2022-08-19T06:43:54;19.10;99.90
6174;DHT22;3120;48.796;9.796;2022-08-19T06:46:20;19.10;99.90
6174;DHT22;3120;48.796;9.796;2022-08-19T06:48:47;19.10;99.90
6174;DHT22;3120;48.796;9.796;2022-08-19T06:51:14;19.10;99.90
6174;DHT22;3120;48.796;9.796;2022-08-19T06:53:46;19.20;99.90
6174;DHT22;3120;48.796;9.796;2022-08-19T06:56:13;19.20;99.90
6174;DHT22;3120;48.796;9.796;2022-08-19T06:58:49;19.10;99.90
6174;DHT22;3120;48.796;9.796;2022-08-19T07:01:18;19.10;99.90
6174;DHT22;3120;48.796;9.796;2022-08-19T07:03:44;19.10;99.90
6174;DHT22;3120;48.796;9.796;2022-08-19T07:06:14;19.20;99.90
6174;DHT22;3120;48.796;9.796;2022-08-19T07:08:41;19.20;99.90
6174;DHT22;3120;48.796;9.796;2022-08-19T07:11:09;19.20;99.90
6174;DHT22;3120;48.796;9.796;2022-08-19T07:13:36;19.20;99.90
6174;DHT22;3120;48.796;9.796;2022-08-19T07:16:06;19.20;99.90
6174;DHT22;3120;48.796;9.796;2022-08-19T07:18:33;19.10;99.90
6174;DHT22;3120;48.796;9.796;2022-08-19T07:21:09;20.00;99.90
6174;DHT22;3120;48.796;9.796;2022-08-19T07:23:36;19.20;99.90
6174;DHT22;3120;48.796;9.796;2022-08-19T07:26:10;19.10;99.90
6174;DHT22;3120;48.796;9.796;2022-08-19T07:28:36;19.00;99.90
6174;DHT22;3120;48.796;9.796;2022-08-19T07:31:12;19.10;99.90
6174;DHT22;3120;48.796;9.796;2022-08-19T07:33:40;19.00;99.90
6174;DHT22;3120;48.796;9.796;2022-08-19T07:36:07;19.00;99.90
6174;DHT22;3120;48.796;9.796;2022-08-19T07:38:36;19.00;99.90
6174;DHT22;3120;48.796;9.796;2022-08-19T07:41:02;19.00;99.90
6174;DHT22;3120;48.796;9.796;2022-08-19T07:43:28;19.70;99.90
6174;DHT22;3120;48.796;9.796;2022-08-19T07:45:55;19.00;99.90
6174;DHT22;3120;48.796;9.796;2022-08-19T07:48:24;19.00;99.90
6174;DHT22;3120;48.796;9.796;2022-08-19T07:50:53;19.00;99.90
6174;DHT22;3120;48.796;9.796;2022-08-19T07:53:20;19.00;99.90
6174;DHT22;3120;48.796;9.796;2022-08-19T07:55:46;19.00;99.90
6174;DHT22;3120;48.796;9.796;2022-08-19T07:58:14;19.00;99.90
6174;DHT22;3120;48.796;9.796;2022-08-19T08:00:41;19.00;99.90
6174;DHT22;3120;48.796;9.796;2022-08-19T08:03:07;19.00;99.90
6174;DHT22;3120;48.796;9.796;2022-08-19T08:05:34;18.90;99.90
6174;DHT22;3120;48.796;9.796;2022-08-19T08:08:18;19.00;99.90
6174;DHT22;3120;48.796;9.796;2022-08-19T08:11:03;18.90;99.90
6174;DHT22;3120;48.796;9.796;2022-08-19T08:13:29;18.90;99.90
6174;DHT22;3120;48.796;9.796;2022-08-19T08:15:56;19.00;99.90
6174;DHT22;3120;48.796;9.796;2022-08-19T08:18:25;18.90;99.90
6174;DHT22;3120;48.796;9.796;2022-08-19T08:20:50;18.90;99.90
6174;DHT22;3120;48.796;9.796;2022-08-19T08:23:16;19.00;99.90
6174;DHT22;3120;48.796;9.796;2022-08-19T08:25:48;19.00;99.90
6174;DHT22;3120;48.796;9.796;2022-08-19T08:28:15;19.00;99.90
6174;DHT22;3120;48.796;9.796;2022-08-19T08:30:41;19.00;99.90
6174;DHT22;3120;48.796;9.796;2022-08-19T08:33:09;19.00;99.90
6174;DHT22;3120;48.796;9.796;2022-08-19T08:35:35;19.00;99.90
6174;DHT22;3120;48.796;9.796;2022-08-19T08:38:01;19.00;99.90
6174;DHT22;3120;48.796;9.796;2022-08-19T08:46:08;18.90;99.90
6174;DHT22;3120;48.796;9.796;2022-08-19T08:48:59;18.90;99.90
6174;DHT22;3120;48.796;9.796;2022-08-19T08:51:32;18.90;99.90
6174;DHT22;3120;48.796;9.796;2022-08-19T08:53:59;18.90;99.90
6174;DHT22;3120;48.796;9.796;2022-08-19T08:56:26;18.90;99.90
6174;DHT22;3120;48.796;9.796;2022-08-19T08:59:03;18.90;99.90
6174;DHT22;3120;48.796;9.796;2022-08-19T09:01:34;18.90;99.90
6174;DHT22;3120;48.796;9.796;2022-08-19T09:04:04;18.90;99.90
6174;DHT22;3120;48.796;9.796;2022-08-19T09:09:30;19.00;99.90
6174;DHT22;3120;48.796;9.796;2022-08-19T09:14:53;19.00;99.90
6174;DHT22;3120;48.796;9.796;2022-08-19T09:17:23;19.00;99.90
6174;DHT22;3120;48.796;9.796;2022-08-19T09:19:58;19.10;99.90
6174;DHT22;3120;48.796;9.796;2022-08-19T09:22:26;19.20;99.90
6174;DHT22;3120;48.796;9.796;2022-08-19T09:24:52;19.10;99.90
6174;DHT22;3120;48.796;9.796;2022-08-19T09:27:22;20.00;99.90
6174;DHT22;3120;48.796;9.796;2022-08-19T09:29:50;19.20;99.90
6174;DHT22;3120;48.796;9.796;2022-08-19T09:32:16;19.20;99.90
6174;DHT22;3120;48.796;9.796;2022-08-19T09:34:43;19.30;99.90
6174;DHT22;3120;48.796;9.796;2022-08-19T09:37:09;19.30;99.90
6174;DHT22;3120;48.796;9.796;2022-08-19T09:39:35;19.30;99.90
6174;DHT22;3120;48.796;9.796;2022-08-19T09:42:00;19.30;99.90
6174;DHT22;3120;48.796;9.796;2022-08-19T09:44:28;19.40;99.90
6174;DHT22;3120;48.796;9.796;2022-08-19T09:46:54;19.40;99.90
6174;DHT22;3120;48.796;9.796;2022-08-19T09:49:21;19.40;99.90
6174;DHT22;3120;48.796;9.796;2022-08-19T09:51:50;19.60;99.90
6174;DHT22;3120;48.796;9.796;2022-08-19T09:54:15;19.60;99.90
6174;DHT22;3120;48.796;9.796;2022-08-19T09:56:41;19.90;99.90
6174;DHT22;3120;48.796;9.796;2022-08-19T09:59:07;19.60;99.90
6174;DHT22;3120;48.796;9.796;2022-08-19T10:01:33;19.70;99.90
6174;DHT22;3120;48.796;9.796;2022-08-19T10:04:00;19.70;99.90
6174;DHT22;3120;48.796;9.796;2022-08-19T10:06:29;19.80;99.90
6174;DHT22;3120;48.796;9.796;2022-08-19T10:08:59;19.90;99.90
6174;DHT22;3120;48.796;9.796;2022-08-19T10:11:25;19.90;99.90
6174;DHT22;3120;48.796;9.796;2022-08-19T10:13:51;20.00;99.90
6174;DHT22;3120;48.796;9.796;2022-08-19T10:16:20;20.00;99.90
6174;DHT22;3120;48.796;9.796;2022-08-19T10:18:48;19.90;99.90
6174;DHT22;3120;48.796;9.796;2022-08-19T10:21:17;19.90;99.90
6174;DHT22;3120;48.796;9.796;2022-08-19T10:23:45;19.90;99.90
6174;DHT22;3120;48.796;9.796;2022-08-19T10:26:18;19.80;99.90
6174;DHT22;3120;48.796;9.796;2022-08-19T10:28:44;19.80;99.90
6174;DHT22;3120;48.796;9.796;2022-08-19T10:31:19;19.80;99.90
6174;DHT22;3120;48.796;9.796;2022-08-19T10:33:47;19.90;99.90
6174;DHT22;3120;48.796;9.796;2022-08-19T10:36:18;19.90;99.90
6174;DHT22;3120;48.796;9.796;2022-08-19T10:38:46;19.80;99.90
6174;DHT22;3120;48.796;9.796;2022-08-19T10:41:16;19.90;99.90
6174;DHT22;3120;48.796;9.796;2022-08-19T10:43:43;19.80;99.90
6174;DHT22;3120;48.796;9.796;2022-08-19T10:46:14;19.80;99.90
6174;DHT22;3120;48.796;9.796;2022-08-19T10:48:41;19.80;99.90
6174;DHT22;3120;48.796;9.796;2022-08-19T10:51:07;19.80;99.90
6174;DHT22;3120;48.796;9.796;2022-08-19T10:53:52;19.70;99.90
6174;DHT22;3120;48.796;9.796;2022-08-19T10:56:18;19.80;99.90
6174;DHT22;3120;48.796;9.796;2022-08-19T10:59:03;19.80;99.90
6174;DHT22;3120;48.796;9.796;2022-08-19T11:01:29;19.70;99.90
6174;DHT22;3120;48.796;9.796;2022-08-19T11:03:56;19.70;99.90
6174;DHT22;3120;48.796;9.796;2022-08-19T11:08:51;19.60;99.90
6174;DHT22;3120;48.796;9.796;2022-08-19T11:11:17;19.70;99.90
6174;DHT22;3120;48.796;9.796;2022-08-19T11:13:43;19.60;99.90
6174;DHT22;3120;48.796;9.796;2022-08-19T11:16:13;19.60;99.90
6174;DHT22;3120;48.796;9.796;2022-08-19T11:18:47;19.60;99.90
6174;DHT22;3120;48.796;9.796;2022-08-19T11:21:23;19.60;99.90
6174;DHT22;3120;48.796;9.796;2022-08-19T11:23:52;19.60;99.90
6174;DHT22;3120;48.796;9.796;2022-08-19T11:26:20;19.50;99.90
6174;DHT22;3120;48.796;9.796;2022-08-19T11:28:47;19.60;99.90
6174;DHT22;3120;48.796;9.796;2022-08-19T11:31:18;19.60;99.90
6174;DHT22;3120;48.796;9.796;2022-08-19T11:33:44;19.40;99.90
6174;DHT22;3120;48.796;9.796;2022-08-19T11:36:13;19.40;99.90
6174;DHT22;3120;48.796;9.796;2022-08-19T11:38:39;19.30;99.90
6174;DHT22;3120;48.796;9.796;2022-08-19T11:41:07;19.20;99.90
6174;DHT22;3120;48.796;9.796;2022-08-19T11:43:33;19.10;99.90
6174;DHT22;3120;48.796;9.796;2022-08-19T11:45:59;19.00;99.90
6174;DHT22;3120;48.796;9.796;2022-08-19T11:48:25;19.00;99.90
6174;DHT22;3120;48.796;9.796;2022-08-19T11:50:52;18.90;99.90
6174;DHT22;3120;48.796;9.796;2022-08-19T11:53:20;18.90;99.90
6174;DHT22;3120;48.796;9.796;2022-08-19T11:55:47;18.80;99.90
6174;DHT22;3120;48.796;9.796;2022-08-19T11:58:14;18.80;99.90
6174;DHT22;3120;48.796;9.796;2022-08-19T12:00:41;18.80;99.90
6174;DHT22;3120;48.796;9.796;2022-08-19T12:03:07;18.70;99.90
6174;DHT22;3120;48.796;9.796;2022-08-19T12:05:35;18.70;99.90
6174;DHT22;3120;48.796;9.796;2022-08-19T12:08:01;18.70;99.90
6174;DHT22;3120;48.796;9.796;2022-08-19T12:10:27;18.70;99.90
6174;DHT22;3120;48.796;9.796;2022-08-19T12:12:53;18.70;99.90
6174;DHT22;3120;48.796;9.796;2022-08-19T12:15:18;18.70;99.90
6174;DHT22;3120;48.796;9.796;2022-08-19T12:17:44;18.70;99.90
6174;DHT22;3120;48.796;9.796;2022-08-19T12:20:11;18.60;99.90
6174;DHT22;3120;48.796;9.796;2022-08-19T12:22:39;18.60;99.90
6174;DHT22;3120;48.796;9.796;2022-08-19T12:25:07;18.80;99.90
6174;DHT22;3120;48.796;9.796;2022-08-19T12:27:34;18.50;99.90
6174;DHT22;3120;48.796;9.796;2022-08-19T12:30:01;18.50;99.90
6174;DHT22;3120;48.796;9.796;2022-08-19T12:32:27;18.50;99.90
6174;DHT22;3120;48.796;9.796;2022-08-19T12:34:53;18.40;99.90
6174;DHT22;3120;48.796;9.796;2022-08-19T12:37:20;18.40;99.90
6174;DHT22;3120;48.796;9.796;2022-08-19T12:39:46;18.40;99.90
6174;DHT22;3120;48.796;9.796;2022-08-19T12:42:13;18.40;99.90
6174;DHT22;3120;48.796;9.796;2022-08-19T12:44:40;18.50;99.90
6174;DHT22;3120;48.796;9.796;2022-08-19T12:47:08;18.40;99.90
6174;DHT22;3120;48.796;9.796;2022-08-19T12:49:34;18.40;99.90
6174;DHT22;3120;48.796;9.796;2022-08-19T12:52:04;18.40;99.90
6174;DHT22;3120;48.796;9.796;2022-08-19T12:54:30;18.30;99.90
6174;DHT22;3120;48.796;9.796;2022-08-19T12:56:57;18.30;99.90
6174;DHT22;3120;48.796;9.796;2022-08-19T12:59:23;18.30;99.90
6174;DHT22;3120;48.796;9.796;2022-08-19T13:01:51;18.30;99.90
6174;DHT22;3120;48.796;9.796;2022-08-19T13:04:17;18.30;99.90
6174;DHT22;3120;48.796;9.796;2022-08-19T13:06:44;18.40;99.90
6174;DHT22;3120;48.796;9.796;2022-08-19T13:09:10;18.30;99.90
6174;DHT22;3120;48.796;9.796;2022-08-19T13:11:37;18.30;99.90
6174;DHT22;3120;48.796;9.796;2022-08-19T13:14:03;18.30;99.90
6174;DHT22;3120;48.796;9.796;2022-08-19T13:16:29;18.30;99.90
6174;DHT22;3120;48.796;9.796;2022-08-19T13:18:56;18.40;99.90
6174;DHT22;3120;48.796;9.796;2022-08-19T13:21:25;18.40;99.90
6174;DHT22;3120;48.796;9.796;2022-08-19T13:23:52;18.40;99.90
6174;DHT22;3120;48.796;9.796;2022-08-19T13:26:21;18.40;99.90
6174;DHT22;3120;48.796;9.796;2022-08-19T13:28:47;18.40;99.90
6174;DHT22;3120;48.796;9.796;2022-08-19T13:31:34;18.40;99.90
6174;DHT22;3120;48.796;9.796;2022-08-19T13:34:28;18.30;99.90
6174;DHT22;3120;48.796;9.796;2022-08-19T13:36:54;18.30;99.90
6174;DHT22;3120;48.796;9.796;2022-08-19T13:39:20;18.30;99.90
6174;DHT22;3120;48.796;9.796;2022-08-19T13:41:48;18.30;99.90
6174;DHT22;3120;48.796;9.796;2022-08-19T13:44:16;18.30;99.90
6174;DHT22;3120;48.796;9.796;2022-08-19T13:46:46;18.40;99.90
6174;DHT22;3120;48.796;9.796;2022-08-19T13:49:13;18.40;99.90
6174;DHT22;3120;48.796;9.796;2022-08-19T13:51:41;18.40;99.90
6174;DHT22;3120;48.796;9.796;2022-08-19T13:54:08;18.40;99.90
6174;DHT22;3120;48.796;9.796;2022-08-19T13:56:40;18.40;99.90
6174;DHT22;3120;48.796;9.796;2022-08-19T13:59:05;18.40;99.90
6174;DHT22;3120;48.796;9.796;2022-08-19T14:01:31;18.50;99.90
6174;DHT22;3120;48.796;9.796;2022-08-19T14:03:57;18.40;99.90
6174;DHT22;3120;48.796;9.796;2022-08-19T14:06:22;18.40;99.90
6174;DHT22;3120;48.796;9.796;2022-08-19T14:08:48;18.40;99.90
6174;DHT22;3120;48.796;9.796;2022-08-19T14:11:14;18.40;99.90
6174;DHT22;3120;48.796;9.796;2022-08-19T14:13:40;18.50;99.90
6174;DHT22;3120;48.796;9.796;2022-08-19T14:16:12;18.40;99.90
6174;DHT22;3120;48.796;9.796;2022-08-19T14:18:38;18.40;99.90
6174;DHT22;3120;48.796;9.796;2022-08-19T14:21:05;18.40;99.90
6174;DHT22;3120;48.796;9.796;2022-08-19T14:23:31;18.50;99.90
6174;DHT22;3120;48.796;9.796;2022-08-19T14:26:06;18.50;99.90
6174;DHT22;3120;48.796;9.796;2022-08-19T14:28:32;18.60;99.90
6174;DHT22;3120;48.796;9.796;2022-08-19T14:30:57;18.60;99.90
6174;DHT22;3120;48.796;9.796;2022-08-19T14:33:23;18.60;99.90
6174;DHT22;3120;48.796;9.796;2022-08-19T14:35:49;18.70;99.90
6174;DHT22;3120;48.796;9.796;2022-08-19T14:38:16;19.00;99.90
6174;DHT22;3120;48.796;9.796;2022-08-19T14:40:43;18.70;99.90
6174;DHT22;3120;48.796;9.796;2022-08-19T14:43:08;18.70;99.90
6174;DHT22;3120;48.796;9.796;2022-08-19T14:45:36;18.70;99.90
6174;DHT22;3120;48.796;9.796;2022-08-19T14:48:06;18.60;99.90
6174;DHT22;3120;48.796;9.796;2022-08-19T14:50:33;18.70;99.90
6174;DHT22;3120;48.796;9.796;2022-08-19T14:53:06;18.70;99.90
6174;DHT22;3120;48.796;9.796;2022-08-19T14:55:32;18.60;99.90
6174;DHT22;3120;48.796;9.796;2022-08-19T14:57:58;18.60;99.90
6174;DHT22;3120;48.796;9.796;2022-08-19T15:00:24;18.60;99.90
6174;DHT22;3120;48.796;9.796;2022-08-19T15:02:50;18.60;99.90
6174;DHT22;3120;48.796;9.796;2022-08-19T15:05:15;18.70;99.90
6174;DHT22;3120;48.796;9.796;2022-08-19T15:07:41;18.70;99.90
6174;DHT22;3120;48.796;9.796;2022-08-19T15:10:09;18.70;99.90
6174;DHT22;3120;48.796;9.796;2022-08-19T15:12:36;18.70;99.90
6174;DHT22;3120;48.796;9.796;2022-08-19T15:15:03;18.60;99.90
6174;DHT22;3120;48.796;9.796;2022-08-19T15:17:30;18.60;99.90
6174;DHT22;3120;48.796;9.796;2022-08-19T15:19:58;18.60;99.90
6174;DHT22;3120;48.796;9.796;2022-08-19T15:22:24;18.70;99.90
6174;DHT22;3120;48.796;9.796;2022-08-19T15:24:49;18.70;99.90
6174;DHT22;3120;48.796;9.796;2022-08-19T15:27:15;18.80;99.90
6174;DHT22;3120;48.796;9.796;2022-08-19T15:29:41;18.80;99.90
6174;DHT22;3120;48.796;9.796;2022-08-19T15:32:07;18.80;99.90
6174;DHT22;3120;48.796;9.796;2022-08-19T15:34:34;18.90;99.90
6174;DHT22;3120;48.796;9.796;2022-08-19T15:37:00;18.90;99.90
6174;DHT22;3120;48.796;9.796;2022-08-19T15:39:27;18.90;99.90
6174;DHT22;3120;48.796;9.796;2022-08-19T15:41:52;18.90;99.90
6174;DHT22;3120;48.796;9.796;2022-08-19T15:44:18;18.80;99.90
6174;DHT22;3120;48.796;9.796;2022-08-19T15:46:47;18.80;99.90
6174;DHT22;3120;48.796;9.796;2022-08-19T15:49:15;18.80;99.90
6174;DHT22;3120;48.796;9.796;2022-08-19T15:51:43;18.80;99.90
6174;DHT22;3120;48.796;9.796;2022-08-19T15:54:12;18.80;99.90
6174;DHT22;3120;48.796;9.796;2022-08-19T15:56:38;18.80;99.90
6174;DHT22;3120;48.796;9.796;2022-08-19T15:59:34;19.40;99.90
6174;DHT22;3120;48.796;9.796;2022-08-19T16:02:20;18.80;99.90
6174;DHT22;3120;48.796;9.796;2022-08-19T16:05:07;18.70;99.90
6174;DHT22;3120;48.796;9.796;2022-08-19T16:07:51;18.70;99.90
6174;DHT22;3120;48.796;9.796;2022-08-19T16:10:17;18.70;99.90
6174;DHT22;3120;48.796;9.796;2022-08-19T16:12:43;18.70;99.90
6174;DHT22;3120;48.796;9.796;2022-08-19T16:15:09;18.70;99.90
6174;DHT22;3120;48.796;9.796;2022-08-19T16:17:35;18.60;99.90
6174;DHT22;3120;48.796;9.796;2022-08-19T16:20:05;18.60;99.90
6174;DHT22;3120;48.796;9.796;2022-08-19T16:22:34;18.60;99.90